Airfield :
LOGIN :

Register | Disclaimer

   EN    FR    IT 

 










Legend :    VFR   Marginal VFR   IFR   Intensive IFR   Very Intensive IFR
Visi :
Ceiling :
>= 8 km
>= 3000ft
5 to 8 km
1000 to 3000 ft
1500m to 5 km
500 to 1000 ft
800 to 1500m
200 to 500 ft
< 800m
< 200 ft
Symbols :   Thunderstorms  Fog  Heavy snow  Heavy precipitations  Wind > 20 kt
SIGMETs :     Misc.  Thunderstorms  Icing  Turbulence  Mountain Waves  Volcanic Ashes






- Airport Elevation : 81 ft
- IATA code : SCS


EGPM - Scatsta

CURRENT METAR :
  • 241120Z 27015KT 9999 -SHRA FEW020 06/02 Q1010 TEMPO SHRA

EXPIRED METARs :
  • 241050Z 27023KT 9999 VCSH FEW012 05/02 Q1010 TEMPO SHRA
  • 241020Z 26019KT 9999 VCSH FEW027 06/01 Q1010 NOSIG
  • 240950Z 27019KT 9999 VCSH FEW027 06/01 Q1010 TEMPO SHRA
  • 240920Z 27017KT 9999 FEW022 05/02 Q1010 NOSIG
  • 240850Z 27023G34KT 9999 VCSH FEW022 06/00 Q1009 TEMPO SHRA

TAF TAF EGPM
Valid from the 24 at 12:00 until the 24 at 20:00 UTC


241102Z 2412/2420 26017KT 9999 FEW014 SCT030
TEMPO 2412/2415 27020G32KT
PROB30
TEMPO 2412/2420 6000 SHRA BKN012



MET'MAP, your aeronautical weather chart ! - Copyright ORBIFLY December 2007 - Disclaimer

ORBIFLY MET'MAP TEAM :

Programming & Development : Alexandra Zaïnal
Concept & original design : Baudouin d'Aumeries
Assistance for programming : Marc-Olivier Méhu
Technical & hardware support : Manuel Goepfert

Contact : metmap@orbifly.com




SOURCES & CREDITS :

   NOAA